sensor_id;sensor_type;location;lat;lon;timestamp;P1;durP1;ratioP1;P2;durP2;ratioP2
4517;SDS011;2271;49.464;11.070;2023-01-15T00:01:32;0.90;;;0.80;;
4517;SDS011;2271;49.464;11.070;2023-01-15T00:03:59;1.47;;;1.07;;
4517;SDS011;2271;49.464;11.070;2023-01-15T00:06:27;1.67;;;1.13;;
4517;SDS011;2271;49.464;11.070;2023-01-15T00:08:53;1.87;;;1.17;;
4517;SDS011;2271;49.464;11.070;2023-01-15T00:11:20;1.40;;;0.93;;
4517;SDS011;2271;49.464;11.070;2023-01-15T00:13:46;1.60;;;0.90;;
4517;SDS011;2271;49.464;11.070;2023-01-15T00:16:13;1.60;;;0.93;;
4517;SDS011;2271;49.464;11.070;2023-01-15T00:18:49;1.13;;;0.80;;
4517;SDS011;2271;49.464;11.070;2023-01-15T00:21:16;1.53;;;0.90;;
4517;SDS011;2271;49.464;11.070;2023-01-15T00:23:41;1.30;;;0.80;;
4517;SDS011;2271;49.464;11.070;2023-01-15T00:26:27;1.50;;;1.13;;
4517;SDS011;2271;49.464;11.070;2023-01-15T00:29:13;1.33;;;0.90;;
4517;SDS011;2271;49.464;11.070;2023-01-15T00:31:39;1.67;;;0.90;;
4517;SDS011;2271;49.464;11.070;2023-01-15T00:34:05;1.70;;;0.90;;
4517;SDS011;2271;49.464;11.070;2023-01-15T00:36:31;1.83;;;1.00;;
4517;SDS011;2271;49.464;11.070;2023-01-15T00:38:58;0.90;;;0.80;;
4517;SDS011;2271;49.464;11.070;2023-01-15T00:41:24;0.90;;;0.90;;
4517;SDS011;2271;49.464;11.070;2023-01-15T00:43:50;1.27;;;0.80;;
4517;SDS011;2271;49.464;11.070;2023-01-15T00:46:17;1.07;;;0.90;;
4517;SDS011;2271;49.464;11.070;2023-01-15T00:48:43;1.27;;;0.90;;
4517;SDS011;2271;49.464;11.070;2023-01-15T00:51:08;3.33;;;0.83;;
4517;SDS011;2271;49.464;11.070;2023-01-15T00:53:34;1.60;;;0.70;;
4517;SDS011;2271;49.464;11.070;2023-01-15T00:56:00;1.07;;;0.90;;
4517;SDS011;2271;49.464;11.070;2023-01-15T00:58:25;2.77;;;1.03;;
4517;SDS011;2271;49.464;11.070;2023-01-15T01:00:52;0.90;;;0.87;;
4517;SDS011;2271;49.464;11.070;2023-01-15T01:03:19;1.00;;;0.70;;
4517;SDS011;2271;49.464;11.070;2023-01-15T01:05:45;0.63;;;0.50;;
4517;SDS011;2271;49.464;11.070;2023-01-15T01:08:10;0.80;;;0.70;;
4517;SDS011;2271;49.464;11.070;2023-01-15T01:10:37;2.10;;;0.63;;
4517;SDS011;2271;49.464;11.070;2023-01-15T01:13:03;1.07;;;0.87;;
4517;SDS011;2271;49.464;11.070;2023-01-15T01:15:29;1.60;;;0.77;;
4517;SDS011;2271;49.464;11.070;2023-01-15T01:17:58;1.27;;;0.70;;
4517;SDS011;2271;49.464;11.070;2023-01-15T01:20:23;0.70;;;0.70;;
4517;SDS011;2271;49.464;11.070;2023-01-15T01:22:50;1.00;;;0.80;;
4517;SDS011;2271;49.464;11.070;2023-01-15T01:25:17;0.73;;;0.70;;
4517;SDS011;2271;49.464;11.070;2023-01-15T01:27:43;0.70;;;0.70;;
4517;SDS011;2271;49.464;11.070;2023-01-15T01:30:11;1.23;;;0.87;;
4517;SDS011;2271;49.464;11.070;2023-01-15T01:32:37;1.17;;;0.70;;
4517;SDS011;2271;49.464;11.070;2023-01-15T01:35:02;1.40;;;0.90;;
4517;SDS011;2271;49.464;11.070;2023-01-15T01:37:28;0.70;;;0.70;;
4517;SDS011;2271;49.464;11.070;2023-01-15T01:39:54;0.50;;;0.50;;
4517;SDS011;2271;49.464;11.070;2023-01-15T01:42:20;2.67;;;0.80;;
4517;SDS011;2271;49.464;11.070;2023-01-15T01:47:19;0.67;;;0.67;;
4517;SDS011;2271;49.464;11.070;2023-01-15T01:49:52;0.50;;;0.50;;
4517;SDS011;2271;49.464;11.070;2023-01-15T01:52:24;2.53;;;0.90;;
4517;SDS011;2271;49.464;11.070;2023-01-15T01:55:20;0.50;;;0.50;;
4517;SDS011;2271;49.464;11.070;2023-01-15T01:57:49;0.50;;;0.50;;
4517;SDS011;2271;49.464;11.070;2023-01-15T02:00:18;0.83;;;0.67;;
4517;SDS011;2271;49.464;11.070;2023-01-15T02:02:46;0.60;;;0.60;;
4517;SDS011;2271;49.464;11.070;2023-01-15T02:05:14;1.07;;;0.70;;
4517;SDS011;2271;49.464;11.070;2023-01-15T02:07:59;0.50;;;0.50;;
4517;SDS011;2271;49.464;11.070;2023-01-15T02:10:25;0.50;;;0.50;;
4517;SDS011;2271;49.464;11.070;2023-01-15T02:15:34;0.40;;;0.40;;
4517;SDS011;2271;49.464;11.070;2023-01-15T02:18:51;0.80;;;0.63;;
4517;SDS011;2271;49.464;11.070;2023-01-15T02:21:13;1.87;;;0.53;;
4517;SDS011;2271;49.464;11.070;2023-01-15T02:29:26;0.40;;;0.40;;
4517;SDS011;2271;49.464;11.070;2023-01-15T02:32:06;0.40;;;0.40;;
4517;SDS011;2271;49.464;11.070;2023-01-15T02:34:35;0.67;;;0.50;;
4517;SDS011;2271;49.464;11.070;2023-01-15T02:37:08;0.50;;;0.50;;
4517;SDS011;2271;49.464;11.070;2023-01-15T02:39:37;0.83;;;0.67;;
4517;SDS011;2271;49.464;11.070;2023-01-15T02:42:07;1.73;;;0.57;;
4517;SDS011;2271;49.464;11.070;2023-01-15T02:44:36;0.60;;;0.53;;
4517;SDS011;2271;49.464;11.070;2023-01-15T02:47:06;0.60;;;0.60;;
4517;SDS011;2271;49.464;11.070;2023-01-15T02:49:33;0.63;;;0.50;;
4517;SDS011;2271;49.464;11.070;2023-01-15T02:52:07;0.60;;;0.60;;
4517;SDS011;2271;49.464;11.070;2023-01-15T02:54:43;0.40;;;0.40;;
4517;SDS011;2271;49.464;11.070;2023-01-15T02:57:11;0.53;;;0.40;;
4517;SDS011;2271;49.464;11.070;2023-01-15T02:59:41;0.40;;;0.30;;
4517;SDS011;2271;49.464;11.070;2023-01-15T03:02:19;1.20;;;0.90;;
4517;SDS011;2271;49.464;11.070;2023-01-15T03:04:51;1.73;;;0.87;;
4517;SDS011;2271;49.464;11.070;2023-01-15T03:07:36;2.60;;;0.70;;
4517;SDS011;2271;49.464;11.070;2023-01-15T03:10:06;0.70;;;0.53;;
4517;SDS011;2271;49.464;11.070;2023-01-15T03:12:47;0.60;;;0.60;;
4517;SDS011;2271;49.464;11.070;2023-01-15T03:18:51;0.53;;;0.50;;
4517;SDS011;2271;49.464;11.070;2023-01-15T03:21:29;0.67;;;0.50;;
4517;SDS011;2271;49.464;11.070;2023-01-15T03:24:05;0.50;;;0.50;;
4517;SDS011;2271;49.464;11.070;2023-01-15T03:26:34;0.40;;;0.40;;
4517;SDS011;2271;49.464;11.070;2023-01-15T03:28:59;0.50;;;0.50;;
4517;SDS011;2271;49.464;11.070;2023-01-15T03:31:27;0.47;;;0.47;;
4517;SDS011;2271;49.464;11.070;2023-01-15T03:33:53;1.60;;;0.40;;
4517;SDS011;2271;49.464;11.070;2023-01-15T03:36:19;0.40;;;0.40;;
4517;SDS011;2271;49.464;11.070;2023-01-15T03:38:44;0.43;;;0.43;;
4517;SDS011;2271;49.464;11.070;2023-01-15T03:44:06;0.50;;;0.50;;
4517;SDS011;2271;49.464;11.070;2023-01-15T03:46:51;0.47;;;0.47;;
4517;SDS011;2271;49.464;11.070;2023-01-15T03:52:01;1.40;;;0.60;;
4517;SDS011;2271;49.464;11.070;2023-01-15T03:57:08;0.93;;;0.50;;
4517;SDS011;2271;49.464;11.070;2023-01-15T03:59:41;0.60;;;0.60;;
4517;SDS011;2271;49.464;11.070;2023-01-15T04:02:15;0.40;;;0.40;;
4517;SDS011;2271;49.464;11.070;2023-01-15T04:04:44;0.40;;;0.40;;
4517;SDS011;2271;49.464;11.070;2023-01-15T04:07:11;0.57;;;0.57;;
4517;SDS011;2271;49.464;11.070;2023-01-15T04:09:38;0.50;;;0.50;;
4517;SDS011;2271;49.464;11.070;2023-01-15T04:12:05;4.00;;;0.70;;
4517;SDS011;2271;49.464;11.070;2023-01-15T04:14:31;0.60;;;0.50;;
4517;SDS011;2271;49.464;11.070;2023-01-15T04:16:57;0.50;;;0.50;;
4517;SDS011;2271;49.464;11.070;2023-01-15T04:19:23;0.40;;;0.40;;
4517;SDS011;2271;49.464;11.070;2023-01-15T04:21:49;0.50;;;0.50;;
4517;SDS011;2271;49.464;11.070;2023-01-15T04:24:14;2.07;;;0.57;;
4517;SDS011;2271;49.464;11.070;2023-01-15T04:26:40;0.87;;;0.47;;
4517;SDS011;2271;49.464;11.070;2023-01-15T04:29:05;1.50;;;0.50;;
4517;SDS011;2271;49.464;11.070;2023-01-15T04:31:31;1.57;;;0.60;;
4517;SDS011;2271;49.464;11.070;2023-01-15T04:33:57;0.50;;;0.50;;
4517;SDS011;2271;49.464;11.070;2023-01-15T04:36:23;0.67;;;0.50;;
4517;SDS011;2271;49.464;11.070;2023-01-15T04:38:49;0.50;;;0.40;;
4517;SDS011;2271;49.464;11.070;2023-01-15T04:41:14;0.60;;;0.60;;
4517;SDS011;2271;49.464;11.070;2023-01-15T04:43:59;0.43;;;0.43;;
4517;SDS011;2271;49.464;11.070;2023-01-15T04:46:30;0.40;;;0.40;;
4517;SDS011;2271;49.464;11.070;2023-01-15T04:48:57;0.43;;;0.43;;
4517;SDS011;2271;49.464;11.070;2023-01-15T04:51:23;0.40;;;0.40;;
4517;SDS011;2271;49.464;11.070;2023-01-15T04:53:49;0.40;;;0.40;;
4517;SDS011;2271;49.464;11.070;2023-01-15T04:56:14;0.67;;;0.40;;
4517;SDS011;2271;49.464;11.070;2023-01-15T04:58:40;0.53;;;0.53;;
4517;SDS011;2271;49.464;11.070;2023-01-15T05:01:15;0.40;;;0.40;;
4517;SDS011;2271;49.464;11.070;2023-01-15T05:03:41;1.03;;;0.70;;
4517;SDS011;2271;49.464;11.070;2023-01-15T05:06:07;0.50;;;0.50;;
4517;SDS011;2271;49.464;11.070;2023-01-15T05:08:33;0.80;;;0.40;;
4517;SDS011;2271;49.464;11.070;2023-01-15T05:11:00;0.30;;;0.30;;
4517;SDS011;2271;49.464;11.070;2023-01-15T05:13:30;0.30;;;0.30;;
4517;SDS011;2271;49.464;11.070;2023-01-15T05:16:06;0.60;;;0.60;;
4517;SDS011;2271;49.464;11.070;2023-01-15T05:18:36;0.50;;;0.40;;
4517;SDS011;2271;49.464;11.070;2023-01-15T05:21:02;0.40;;;0.40;;
4517;SDS011;2271;49.464;11.070;2023-01-15T05:23:28;0.43;;;0.40;;
4517;SDS011;2271;49.464;11.070;2023-01-15T05:25:53;0.40;;;0.40;;
4517;SDS011;2271;49.464;11.070;2023-01-15T05:28:19;0.73;;;0.57;;
4517;SDS011;2271;49.464;11.070;2023-01-15T05:30:44;0.70;;;0.50;;
4517;SDS011;2271;49.464;11.070;2023-01-15T05:33:10;0.33;;;0.33;;
4517;SDS011;2271;49.464;11.070;2023-01-15T05:35:36;1.07;;;0.50;;
4517;SDS011;2271;49.464;11.070;2023-01-15T05:38:02;1.40;;;0.50;;
4517;SDS011;2271;49.464;11.070;2023-01-15T05:40:30;0.50;;;0.50;;
4517;SDS011;2271;49.464;11.070;2023-01-15T05:42:56;0.57;;;0.50;;
4517;SDS011;2271;49.464;11.070;2023-01-15T05:45:21;0.93;;;0.50;;
4517;SDS011;2271;49.464;11.070;2023-01-15T05:47:47;0.47;;;0.47;;
4517;SDS011;2271;49.464;11.070;2023-01-15T05:50:12;2.47;;;0.50;;
4517;SDS011;2271;49.464;11.070;2023-01-15T05:52:38;0.30;;;0.30;;
4517;SDS011;2271;49.464;11.070;2023-01-15T05:55:04;0.67;;;0.53;;
4517;SDS011;2271;49.464;11.070;2023-01-15T05:57:29;0.40;;;0.40;;
4517;SDS011;2271;49.464;11.070;2023-01-15T05:59:56;0.63;;;0.50;;
4517;SDS011;2271;49.464;11.070;2023-01-15T06:02:22;0.37;;;0.37;;
4517;SDS011;2271;49.464;11.070;2023-01-15T06:04:48;0.80;;;0.33;;
4517;SDS011;2271;49.464;11.070;2023-01-15T06:07:14;0.90;;;0.57;;
4517;SDS011;2271;49.464;11.070;2023-01-15T06:09:42;0.50;;;0.50;;
4517;SDS011;2271;49.464;11.070;2023-01-15T06:12:08;0.53;;;0.40;;
4517;SDS011;2271;49.464;11.070;2023-01-15T06:14:33;0.40;;;0.40;;
4517;SDS011;2271;49.464;11.070;2023-01-15T06:16:59;0.40;;;0.40;;
4517;SDS011;2271;49.464;11.070;2023-01-15T06:19:25;0.40;;;0.40;;
4517;SDS011;2271;49.464;11.070;2023-01-15T06:21:50;0.40;;;0.40;;
4517;SDS011;2271;49.464;11.070;2023-01-15T06:24:16;0.43;;;0.30;;
4517;SDS011;2271;49.464;11.070;2023-01-15T06:26:43;0.40;;;0.40;;
4517;SDS011;2271;49.464;11.070;2023-01-15T06:29:09;0.40;;;0.40;;
4517;SDS011;2271;49.464;11.070;2023-01-15T06:31:35;1.00;;;0.60;;
4517;SDS011;2271;49.464;11.070;2023-01-15T06:34:01;0.40;;;0.40;;
4517;SDS011;2271;49.464;11.070;2023-01-15T06:36:28;2.67;;;0.80;;
4517;SDS011;2271;49.464;11.070;2023-01-15T06:38:54;1.30;;;0.50;;
4517;SDS011;2271;49.464;11.070;2023-01-15T06:41:21;0.50;;;0.50;;
4517;SDS011;2271;49.464;11.070;2023-01-15T06:44:09;0.40;;;0.40;;
4517;SDS011;2271;49.464;11.070;2023-01-15T06:46:56;1.07;;;0.30;;
4517;SDS011;2271;49.464;11.070;2023-01-15T06:49:40;0.40;;;0.40;;
4517;SDS011;2271;49.464;11.070;2023-01-15T06:52:05;0.30;;;0.30;;
4517;SDS011;2271;49.464;11.070;2023-01-15T06:54:32;0.30;;;0.30;;
4517;SDS011;2271;49.464;11.070;2023-01-15T06:56:58;0.30;;;0.30;;
4517;SDS011;2271;49.464;11.070;2023-01-15T06:59:24;0.50;;;0.40;;
4517;SDS011;2271;49.464;11.070;2023-01-15T07:01:49;2.60;;;1.13;;
4517;SDS011;2271;49.464;11.070;2023-01-15T07:04:15;0.30;;;0.30;;
4517;SDS011;2271;49.464;11.070;2023-01-15T07:06:40;2.35;;;1.77;;
4517;SDS011;2271;49.464;11.070;2023-01-15T07:09:06;0.40;;;0.40;;
4517;SDS011;2271;49.464;11.070;2023-01-15T07:11:32;1.03;;;0.30;;
4517;SDS011;2271;49.464;11.070;2023-01-15T07:13:58;1.50;;;0.30;;
4517;SDS011;2271;49.464;11.070;2023-01-15T07:16:31;0.37;;;0.37;;
4517;SDS011;2271;49.464;11.070;2023-01-15T07:18:57;0.40;;;0.40;;
4517;SDS011;2271;49.464;11.070;2023-01-15T07:21:23;0.57;;;0.30;;
4517;SDS011;2271;49.464;11.070;2023-01-15T07:23:49;0.37;;;0.30;;
4517;SDS011;2271;49.464;11.070;2023-01-15T07:26:14;0.23;;;0.23;;
4517;SDS011;2271;49.464;11.070;2023-01-15T07:28:40;0.30;;;0.30;;
4517;SDS011;2271;49.464;11.070;2023-01-15T07:31:05;0.43;;;0.43;;
4517;SDS011;2271;49.464;11.070;2023-01-15T07:33:31;0.53;;;0.53;;
4517;SDS011;2271;49.464;11.070;2023-01-15T07:35:57;0.50;;;0.50;;
4517;SDS011;2271;49.464;11.070;2023-01-15T07:38:26;0.40;;;0.40;;
4517;SDS011;2271;49.464;11.070;2023-01-15T07:40:54;0.50;;;0.40;;
4517;SDS011;2271;49.464;11.070;2023-01-15T07:43:49;0.90;;;0.70;;
4517;SDS011;2271;49.464;11.070;2023-01-15T07:46:34;0.63;;;0.47;;
4517;SDS011;2271;49.464;11.070;2023-01-15T07:49:18;0.40;;;0.40;;
4517;SDS011;2271;49.464;11.070;2023-01-15T07:52:02;0.40;;;0.40;;
4517;SDS011;2271;49.464;11.070;2023-01-15T07:54:27;0.30;;;0.30;;
4517;SDS011;2271;49.464;11.070;2023-01-15T07:56:53;0.47;;;0.47;;
4517;SDS011;2271;49.464;11.070;2023-01-15T07:59:20;0.50;;;0.50;;
4517;SDS011;2271;49.464;11.070;2023-01-15T08:01:46;0.50;;;0.50;;
4517;SDS011;2271;49.464;11.070;2023-01-15T08:04:11;0.50;;;0.50;;
4517;SDS011;2271;49.464;11.070;2023-01-15T08:06:37;0.40;;;0.40;;
4517;SDS011;2271;49.464;11.070;2023-01-15T08:09:03;0.63;;;0.53;;
4517;SDS011;2271;49.464;11.070;2023-01-15T08:11:29;0.50;;;0.50;;
4517;SDS011;2271;49.464;11.070;2023-01-15T08:14:13;0.40;;;0.40;;
4517;SDS011;2271;49.464;11.070;2023-01-15T08:16:57;0.40;;;0.40;;
4517;SDS011;2271;49.464;11.070;2023-01-15T08:19:23;0.30;;;0.30;;
4517;SDS011;2271;49.464;11.070;2023-01-15T08:21:49;0.37;;;0.37;;
4517;SDS011;2271;49.464;11.070;2023-01-15T08:24:15;0.57;;;0.40;;
4517;SDS011;2271;49.464;11.070;2023-01-15T08:26:41;0.30;;;0.30;;
4517;SDS011;2271;49.464;11.070;2023-01-15T08:29:07;0.27;;;0.27;;
4517;SDS011;2271;49.464;11.070;2023-01-15T08:31:32;0.30;;;0.30;;
4517;SDS011;2271;49.464;11.070;2023-01-15T08:33:58;0.73;;;0.30;;
4517;SDS011;2271;49.464;11.070;2023-01-15T08:36:24;0.30;;;0.30;;
4517;SDS011;2271;49.464;11.070;2023-01-15T08:38:50;0.30;;;0.30;;
4517;SDS011;2271;49.464;11.070;2023-01-15T08:41:16;0.30;;;0.30;;
4517;SDS011;2271;49.464;11.070;2023-01-15T08:43:41;0.30;;;0.30;;
4517;SDS011;2271;49.464;11.070;2023-01-15T08:46:09;1.33;;;0.40;;
4517;SDS011;2271;49.464;11.070;2023-01-15T08:48:35;0.57;;;0.40;;
4517;SDS011;2271;49.464;11.070;2023-01-15T08:51:05;0.50;;;0.50;;
4517;SDS011;2271;49.464;11.070;2023-01-15T08:53:32;0.53;;;0.50;;
4517;SDS011;2271;49.464;11.070;2023-01-15T08:55:58;1.27;;;0.60;;
4517;SDS011;2271;49.464;11.070;2023-01-15T08:58:26;0.50;;;0.50;;
4517;SDS011;2271;49.464;11.070;2023-01-15T09:00:53;0.50;;;0.50;;
4517;SDS011;2271;49.464;11.070;2023-01-15T09:03:19;0.30;;;0.30;;
4517;SDS011;2271;49.464;11.070;2023-01-15T09:05:45;0.60;;;0.60;;
4517;SDS011;2271;49.464;11.070;2023-01-15T09:08:10;0.50;;;0.50;;
4517;SDS011;2271;49.464;11.070;2023-01-15T09:10:36;0.50;;;0.50;;
4517;SDS011;2271;49.464;11.070;2023-01-15T09:13:02;1.00;;;0.70;;
4517;SDS011;2271;49.464;11.070;2023-01-15T09:15:29;1.30;;;0.50;;
4517;SDS011;2271;49.464;11.070;2023-01-15T09:17:56;0.47;;;0.47;;
4517;SDS011;2271;49.464;11.070;2023-01-15T09:20:21;0.50;;;0.50;;
4517;SDS011;2271;49.464;11.070;2023-01-15T09:22:48;0.40;;;0.40;;
4517;SDS011;2271;49.464;11.070;2023-01-15T09:25:14;0.60;;;0.50;;
4517;SDS011;2271;49.464;11.070;2023-01-15T09:27:41;0.53;;;0.53;;
4517;SDS011;2271;49.464;11.070;2023-01-15T09:30:08;1.07;;;0.90;;
4517;SDS011;2271;49.464;11.070;2023-01-15T09:32:38;1.30;;;0.90;;
4517;SDS011;2271;49.464;11.070;2023-01-15T09:35:03;0.60;;;0.60;;
4517;SDS011;2271;49.464;11.070;2023-01-15T09:37:29;0.67;;;0.60;;
4517;SDS011;2271;49.464;11.070;2023-01-15T09:39:55;0.60;;;0.60;;
4517;SDS011;2271;49.464;11.070;2023-01-15T09:45:29;1.17;;;1.10;;
4517;SDS011;2271;49.464;11.070;2023-01-15T09:48:15;0.80;;;0.80;;
4517;SDS011;2271;49.464;11.070;2023-01-15T09:51:01;0.70;;;0.60;;
4517;SDS011;2271;49.464;11.070;2023-01-15T09:53:49;1.53;;;0.67;;
4517;SDS011;2271;49.464;11.070;2023-01-15T09:56:26;0.40;;;0.40;;
4517;SDS011;2271;49.464;11.070;2023-01-15T09:58:54;0.60;;;0.60;;
4517;SDS011;2271;49.464;11.070;2023-01-15T10:01:26;0.40;;;0.40;;
4517;SDS011;2271;49.464;11.070;2023-01-15T10:04:02;1.27;;;0.70;;
4517;SDS011;2271;49.464;11.070;2023-01-15T10:06:47;0.50;;;0.50;;
4517;SDS011;2271;49.464;11.070;2023-01-15T10:09:21;1.20;;;0.70;;
4517;SDS011;2271;49.464;11.070;2023-01-15T10:11:57;1.43;;;0.57;;
4517;SDS011;2271;49.464;11.070;2023-01-15T10:14:44;2.07;;;0.50;;
4517;SDS011;2271;49.464;11.070;2023-01-15T10:17:34;0.53;;;0.50;;
4517;SDS011;2271;49.464;11.070;2023-01-15T10:20:11;1.87;;;0.90;;
4517;SDS011;2271;49.464;11.070;2023-01-15T10:26:30;0.87;;;0.87;;
4517;SDS011;2271;49.464;11.070;2023-01-15T10:28:50;0.50;;;0.50;;
4517;SDS011;2271;49.464;11.070;2023-01-15T10:31:18;0.60;;;0.53;;
4517;SDS011;2271;49.464;11.070;2023-01-15T10:47:17;0.43;;;0.43;;
4517;SDS011;2271;49.464;11.070;2023-01-15T10:49:46;1.07;;;0.77;;
4517;SDS011;2271;49.464;11.070;2023-01-15T10:52:25;0.57;;;0.40;;
4517;SDS011;2271;49.464;11.070;2023-01-15T10:57:52;0.60;;;0.60;;
4517;SDS011;2271;49.464;11.070;2023-01-15T11:00:35;0.60;;;0.60;;
4517;SDS011;2271;49.464;11.070;2023-01-15T11:03:02;0.70;;;0.70;;
4517;SDS011;2271;49.464;11.070;2023-01-15T11:05:33;0.90;;;0.60;;
4517;SDS011;2271;49.464;11.070;2023-01-15T11:08:00;3.17;;;1.40;;
4517;SDS011;2271;49.464;11.070;2023-01-15T11:10:29;1.30;;;1.20;;
4517;SDS011;2271;49.464;11.070;2023-01-15T11:12:57;1.10;;;0.90;;
4517;SDS011;2271;49.464;11.070;2023-01-15T11:15:57;1.03;;;1.00;;
4517;SDS011;2271;49.464;11.070;2023-01-15T11:18:42;0.80;;;0.80;;
4517;SDS011;2271;49.464;11.070;2023-01-15T11:21:28;0.87;;;0.83;;
4517;SDS011;2271;49.464;11.070;2023-01-15T11:23:55;1.93;;;1.37;;
4517;SDS011;2271;49.464;11.070;2023-01-15T11:26:26;1.70;;;1.60;;
4517;SDS011;2271;49.464;11.070;2023-01-15T11:28:54;0.70;;;0.70;;
4517;SDS011;2271;49.464;11.070;2023-01-15T11:31:22;1.23;;;0.93;;
4517;SDS011;2271;49.464;11.070;2023-01-15T11:34:00;1.97;;;1.03;;
4517;SDS011;2271;49.464;11.070;2023-01-15T11:36:27;1.20;;;1.03;;
4517;SDS011;2271;49.464;11.070;2023-01-15T11:38:54;1.27;;;1.20;;
4517;SDS011;2271;49.464;11.070;2023-01-15T11:44:14;0.93;;;0.93;;
4517;SDS011;2271;49.464;11.070;2023-01-15T11:46:59;1.50;;;1.27;;
4517;SDS011;2271;49.464;11.070;2023-01-15T11:49:50;0.70;;;0.70;;
4517;SDS011;2271;49.464;11.070;2023-01-15T11:52:36;1.33;;;1.23;;
4517;SDS011;2271;49.464;11.070;2023-01-15T11:55:09;1.83;;;1.00;;
4517;SDS011;2271;49.464;11.070;2023-01-15T11:57:38;0.73;;;0.70;;
4517;SDS011;2271;49.464;11.070;2023-01-15T12:00:04;1.07;;;0.83;;
4517;SDS011;2271;49.464;11.070;2023-01-15T12:02:35;0.50;;;0.50;;
4517;SDS011;2271;49.464;11.070;2023-01-15T12:05:34;0.60;;;0.60;;
4517;SDS011;2271;49.464;11.070;2023-01-15T12:08:01;1.17;;;0.50;;
4517;SDS011;2271;49.464;11.070;2023-01-15T12:10:37;0.50;;;0.50;;
4517;SDS011;2271;49.464;11.070;2023-01-15T12:22:07;0.40;;;0.40;;
4517;SDS011;2271;49.464;11.070;2023-01-15T12:27:48;0.60;;;0.60;;
4517;SDS011;2271;49.464;11.070;2023-01-15T12:36:01;0.50;;;0.50;;
4517;SDS011;2271;49.464;11.070;2023-01-15T12:41:01;0.30;;;0.30;;
4517;SDS011;2271;49.464;11.070;2023-01-15T12:43:37;1.40;;;0.50;;
4517;SDS011;2271;49.464;11.070;2023-01-15T12:46:25;2.73;;;0.63;;
4517;SDS011;2271;49.464;11.070;2023-01-15T12:51:34;0.50;;;0.50;;
4517;SDS011;2271;49.464;11.070;2023-01-15T12:54:14;0.60;;;0.60;;
4517;SDS011;2271;49.464;11.070;2023-01-15T12:56:55;0.40;;;0.40;;
4517;SDS011;2271;49.464;11.070;2023-01-15T12:59:30;0.43;;;0.43;;
4517;SDS011;2271;49.464;11.070;2023-01-15T13:04:51;1.33;;;0.60;;
4517;SDS011;2271;49.464;11.070;2023-01-15T13:07:38;1.80;;;0.53;;
4517;SDS011;2271;49.464;11.070;2023-01-15T13:10:19;0.83;;;0.57;;
4517;SDS011;2271;49.464;11.070;2023-01-15T13:12:48;1.60;;;0.67;;
4517;SDS011;2271;49.464;11.070;2023-01-15T13:15:17;0.40;;;0.40;;
4517;SDS011;2271;49.464;11.070;2023-01-15T13:18:03;0.70;;;0.70;;
4517;SDS011;2271;49.464;11.070;2023-01-15T13:20:45;0.43;;;0.43;;
4517;SDS011;2271;49.464;11.070;2023-01-15T13:26:10;0.60;;;0.60;;
4517;SDS011;2271;49.464;11.070;2023-01-15T13:31:30;1.43;;;0.93;;
4517;SDS011;2271;49.464;11.070;2023-01-15T13:34:13;1.10;;;1.00;;
4517;SDS011;2271;49.464;11.070;2023-01-15T13:36:47;0.50;;;0.50;;
4517;SDS011;2271;49.464;11.070;2023-01-15T13:39:16;0.70;;;0.70;;
4517;SDS011;2271;49.464;11.070;2023-01-15T13:41:46;0.70;;;0.70;;
4517;SDS011;2271;49.464;11.070;2023-01-15T13:44:35;1.70;;;1.00;;
4517;SDS011;2271;49.464;11.070;2023-01-15T13:47:04;0.60;;;0.60;;
4517;SDS011;2271;49.464;11.070;2023-01-15T13:49:39;0.63;;;0.63;;
4517;SDS011;2271;49.464;11.070;2023-01-15T13:54:57;0.53;;;0.53;;
4517;SDS011;2271;49.464;11.070;2023-01-15T13:57:33;1.47;;;0.50;;
4517;SDS011;2271;49.464;11.070;2023-01-15T14:00:04;0.50;;;0.50;;
4517;SDS011;2271;49.464;11.070;2023-01-15T14:02:32;1.33;;;0.77;;
4517;SDS011;2271;49.464;11.070;2023-01-15T14:07:46;0.50;;;0.50;;
4517;SDS011;2271;49.464;11.070;2023-01-15T14:35:35;3.67;;;1.40;;
4517;SDS011;2271;49.464;11.070;2023-01-15T14:38:05;3.40;;;1.70;;
4517;SDS011;2271;49.464;11.070;2023-01-15T14:40:36;2.77;;;1.83;;
4517;SDS011;2271;49.464;11.070;2023-01-15T14:43:18;2.80;;;1.10;;
4517;SDS011;2271;49.464;11.070;2023-01-15T14:45:48;3.70;;;1.63;;
4517;SDS011;2271;49.464;11.070;2023-01-15T14:48:17;3.83;;;1.30;;
4517;SDS011;2271;49.464;11.070;2023-01-15T14:50:52;3.03;;;1.13;;
4517;SDS011;2271;49.464;11.070;2023-01-15T15:06:20;2.60;;;1.07;;
4517;SDS011;2271;49.464;11.070;2023-01-15T15:08:47;7.43;;;4.33;;
4517;SDS011;2271;49.464;11.070;2023-01-15T15:11:17;3.30;;;1.90;;
4517;SDS011;2271;49.464;11.070;2023-01-15T15:14:11;1.70;;;1.27;;
4517;SDS011;2271;49.464;11.070;2023-01-15T15:16:41;6.40;;;1.43;;
4517;SDS011;2271;49.464;11.070;2023-01-15T15:19:13;1.90;;;0.93;;
4517;SDS011;2271;49.464;11.070;2023-01-15T15:21:45;5.17;;;1.23;;
4517;SDS011;2271;49.464;11.070;2023-01-15T15:24:31;2.10;;;1.43;;
4517;SDS011;2271;49.464;11.070;2023-01-15T15:27:19;0.97;;;0.80;;
4517;SDS011;2271;49.464;11.070;2023-01-15T15:29:47;0.90;;;0.70;;
4517;SDS011;2271;49.464;11.070;2023-01-15T15:32:17;1.80;;;0.70;;
4517;SDS011;2271;49.464;11.070;2023-01-15T15:34:47;1.60;;;0.70;;
4517;SDS011;2271;49.464;11.070;2023-01-15T15:37:18;1.30;;;0.80;;
4517;SDS011;2271;49.464;11.070;2023-01-15T15:39:57;2.57;;;0.87;;
4517;SDS011;2271;49.464;11.070;2023-01-15T15:42:42;0.80;;;0.60;;
4517;SDS011;2271;49.464;11.070;2023-01-15T15:45:32;0.70;;;0.70;;
4517;SDS011;2271;49.464;11.070;2023-01-15T15:48:20;1.13;;;0.70;;
4517;SDS011;2271;49.464;11.070;2023-01-15T15:54:15;1.60;;;0.83;;
4517;SDS011;2271;49.464;11.070;2023-01-15T16:01:59;1.37;;;1.27;;
4517;SDS011;2271;49.464;11.070;2023-01-15T16:04:34;2.73;;;1.10;;
4517;SDS011;2271;49.464;11.070;2023-01-15T16:07:00;3.07;;;1.27;;
4517;SDS011;2271;49.464;11.070;2023-01-15T16:09:36;5.87;;;1.17;;
4517;SDS011;2271;49.464;11.070;2023-01-15T16:12:03;4.70;;;0.90;;
4517;SDS011;2271;49.464;11.070;2023-01-15T16:14:33;5.57;;;1.63;;
4517;SDS011;2271;49.464;11.070;2023-01-15T16:17:01;2.47;;;0.80;;
4517;SDS011;2271;49.464;11.070;2023-01-15T16:19:27;1.97;;;1.10;;
4517;SDS011;2271;49.464;11.070;2023-01-15T16:21:53;2.10;;;0.90;;
4517;SDS011;2271;49.464;11.070;2023-01-15T16:24:23;1.27;;;1.10;;
4517;SDS011;2271;49.464;11.070;2023-01-15T16:29:23;5.57;;;1.40;;
4517;SDS011;2271;49.464;11.070;2023-01-15T16:31:52;3.73;;;1.07;;
4517;SDS011;2271;49.464;11.070;2023-01-15T16:34:21;2.83;;;1.00;;
4517;SDS011;2271;49.464;11.070;2023-01-15T16:36:50;2.87;;;1.10;;
4517;SDS011;2271;49.464;11.070;2023-01-15T16:39:22;7.20;;;1.53;;
4517;SDS011;2271;49.464;11.070;2023-01-15T16:41:50;2.33;;;1.47;;
4517;SDS011;2271;49.464;11.070;2023-01-15T16:47:34;2.33;;;1.13;;
4517;SDS011;2271;49.464;11.070;2023-01-15T16:50:24;3.53;;;1.10;;
4517;SDS011;2271;49.464;11.070;2023-01-15T16:52:53;2.13;;;0.93;;
4517;SDS011;2271;49.464;11.070;2023-01-15T17:00:36;2.73;;;1.40;;
4517;SDS011;2271;49.464;11.070;2023-01-15T17:03:09;1.77;;;1.27;;
4517;SDS011;2271;49.464;11.070;2023-01-15T17:05:36;3.50;;;1.97;;
4517;SDS011;2271;49.464;11.070;2023-01-15T17:08:02;6.30;;;1.77;;
4517;SDS011;2271;49.464;11.070;2023-01-15T17:10:28;1.40;;;1.30;;
4517;SDS011;2271;49.464;11.070;2023-01-15T17:12:55;2.73;;;1.40;;
4517;SDS011;2271;49.464;11.070;2023-01-15T17:17:51;2.07;;;1.10;;
4517;SDS011;2271;49.464;11.070;2023-01-15T17:20:18;2.00;;;1.30;;
4517;SDS011;2271;49.464;11.070;2023-01-15T17:22:48;2.07;;;1.30;;
4517;SDS011;2271;49.464;11.070;2023-01-15T17:27:47;6.10;;;1.50;;
4517;SDS011;2271;49.464;11.070;2023-01-15T17:30:13;2.13;;;1.40;;
4517;SDS011;2271;49.464;11.070;2023-01-15T17:32:39;2.40;;;1.20;;
4517;SDS011;2271;49.464;11.070;2023-01-15T17:35:28;3.10;;;1.77;;
4517;SDS011;2271;49.464;11.070;2023-01-15T17:37:53;7.07;;;1.80;;
4517;SDS011;2271;49.464;11.070;2023-01-15T17:40:19;8.40;;;2.20;;
4517;SDS011;2271;49.464;11.070;2023-01-15T17:42:45;7.13;;;2.80;;
4517;SDS011;2271;49.464;11.070;2023-01-15T17:45:14;7.30;;;3.47;;
4517;SDS011;2271;49.464;11.070;2023-01-15T17:47:43;5.80;;;2.37;;
4517;SDS011;2271;49.464;11.070;2023-01-15T17:50:09;7.13;;;2.57;;